Aktualne dane pomiarowe

Uwaga, wersja testowa! Automatyczne pobieranie danych za pomocą narzędzi lub skryptów to umożliwiających jest zabronione.

Dane meteo z obszaru Polski uzyskane na podstawie depesz SYNOP pobieranych co godzinę z NWS. Najedź myszką na symbol przedstawiony w tabeli, aby uzyskać informacje co do jego znaczenia. Prosimy pamiętać, że to testowa wersja strony, która jeszcze nie jest ukończona. Stworzono również jest krótki FAQ dotyczący korzystania z tej podstrony Anomalie temperatury w chwili obecnej odniesione są do okresu referencyjnego 1951-2016. Okres ten będzie później zmieniony na 1981-2010. Kliknij ikonę aby pobrać plik CSV. Kliknij ikonę aby wygenerować mapę synoptyczną dla danego terminu.

Wybierz Datę:    

        

Krosno (12670)

Dane terminowe dla wybranej stacji. Kliknij datę, aby otrzymać dane z tego terminu dla wszystkich stacji.

TemperaturaZachmurzenieWiatrCiśnienieOpadyPogoda
 Data t td wb tx tn tg rh  Nt Nl Cl Cm Ch ws wd g1 g2 wx mslp ppp ch 24h 12h t ww ww w1 w2  
2019-06-22 23:00:00 18.6 16.5 17.1--- 8824.0wxwxwxwx1wx--11018.8 980.1 0.1---------
2019-06-22 22:00:00 18.6 16.5 17.1--- 8820.0wxwxwxwx1wx--11018.7 980.0 0.0---------
2019-06-22 21:00:00 18.5 16.6 17.1--- 8915.0wxwxwx1wx--11019.0 980.2 0.1---wx-w1--
2019-06-22 20:00:00 18.6 16.7 17.2--- 8914.0wxwxwxwxwx1wx--11018.7 980.0 -0.3---------
2019-06-22 19:00:00 19.2 16.9 17.6--- 8725.0wxwxwxwxwx1wx--11018.7 980.0 -0.2---wx---
2019-06-22 18:00:00 19.6 17.1 17.8 24.4 18.1- 8622.0wxwxwxwxwx2wx-721018.7 980.1 0.0- 0.912wx-w1--
2019-06-22 17:00:00 20.3 17.2 18.1--- 8226.0wxwxwx3wx--31018.8 980.3 0.0---wx-w1--
2019-06-22 16:00:00 22.1 16.5 18.3--- 7117.0wxwxwx2wx-721018.5 980.2 -0.4---wx---
2019-06-22 15:00:00 24.2 16.6 19.2--- 6328.0wxwxwxwx2wx-721018.1 980.1 -1.0---------
2019-06-22 14:00:00 22.8 16.2 18.4--- 6630.0wxwxwxwx3wx--31018.5 980.3 -1.0---------
2019-06-22 13:00:00 23.5 16.9 19.1--- 6735.0wxwxwxwxwx3wx--31018.7 980.6 -1.1---------
2019-06-22 12:00:00 22.2 16.3 18.2--- 6926.0wxwxwxwx4wx-841019.4 981.1 -0.4- 0.06------
2019-06-22 11:00:00 22.9 16.3 18.5--- 6630.0wxwxwxwx3wx8--1019.5 981.3 -0.2---------
2019-06-22 10:00:00 22.9 16.3 18.5--- 6635.0wxwxwxwx2wx--21019.9 981.7 0.3---------
2019-06-22 09:00:00 21.4 16.5 18.1--- 7425.0wxwxwxwxwx3wx--31019.9 981.5 0.4---------
2019-06-22 08:00:00 20.8 17.5 18.5--- 8126.0wxwxwxwx2wx--21020.0 981.5 0.6---------
2019-06-22 07:00:00 19.1 17.0 17.6--- 8821.0wxwxwxwx2wx--21020.1 981.4 0.8---------
2019-06-22 06:00:00 18.1 18.0 18.0 18.1 16.1 16 999.0wxwxwxwx2wx--21020.0 981.1 0.8 14.6 1.012wx-w1- 7.7
2019-06-22 05:00:00 16.9 16.8 16.8--- 990.9wx-2wx--21019.9 980.9 1.2---wx-w1w2--
2019-06-22 04:00:00 16.3 16.2 16.2--- 990.1wx-3wx--31019.7 980.6 1.2---wx-w1w2--
2019-06-22 03:00:00 16.3 16.2 16.2--- 990.1wx-2wx--21019.4 980.3 1.2---wx-w1--
2019-06-22 02:00:00 16.4 16.2 16.2--- 990.1wx-2wx--21018.7 979.7 1.0---wx-w1--
2019-06-22 01:00:00 16.9 16.7 16.7--- 991.8wxwxwxwx1wx--11018.4 979.4 1.1---wx---
2019-06-22 00:00:00 16.9 16.7 16.7--- 993.8wxwxwxwx2wx--21018.0 979.1 1.0- 1.06wx-w1w2--
2019-06-21 23:00:00 17.2 17.0 17.0--- 997.0wxwxwxwx2wx--21017.6 978.7 0.0---wx---
2019-06-21 22:00:00 16.9 16.7 16.7--- 990.6wx-wx2wx--21017.2 978.3 -0.2---wx---
2019-06-21 21:00:00 17.4 17.0 17.1--- 987.0wxwxwxwxwx1wx--11016.9 978.1 0.9---wx-w1w2--
2019-06-21 20:00:00 17.4 17.0 17.1--- 987.0wxwxwxwx1wx--11017.6 978.7 2.1---wx---
2019-06-21 19:00:00 17.5 16.8 17.0--- 967.0wxwxwx2wx--21017.3 978.5 2.5---wx-w1w2--
2019-06-21 18:00:00 17.9 16.7 17.0 24.5 17.8- 932.8wxwxwx2wx-1221015.9 977.2 1.0- 13.012wx-w1--
2019-06-21 17:00:00 23.1 18.1 19.6--- 7445.0wxwxwxwx1wx---1014.6 976.6 0.3---wx-w1--
2019-06-21 16:00:00 23.9 17.5 19.6--- 6735.0wxwxwxwx2wx--21013.9 976.0 -0.8---wx---
2019-06-21 15:00:00 23.9 17.0 19.3--- 6545.0wxwxwxwxwx2wx---1014.1 976.2 -1.0---wx-w1--
2019-06-21 14:00:00 22.1 16.2 18.1--- 6930.0wxwxwxwxwx3wx--31014.4 976.3 -0.9---------
2019-06-21 13:00:00 21.5 17.8 18.9--- 8026.0wxwxwxwxwx2wx--21015.0 976.8 -0.4---wx---
2019-06-21 12:00:00 21.6 17.7 18.9--- 7922.0wxwxwxwx2wx--21015.4 977.2 -0.1- 0.96wx-w1w2--
2019-06-21 11:00:00 21.5 17.2 18.5--- 7720.0wxwxwx1wx---1015.4 977.2 0.1---wx-w1--
2019-06-21 10:00:00 22.8 15.5 18.0--- 6328.0wxwxwxwxwx4wx---1015.3 977.2 0.3---wx-w1--
2019-06-21 09:00:00 22.9 15.8 18.2--- 6430.0wxwxwxwxwx3wx--31015.4 977.3 0.7---wx---
2019-06-21 08:00:00 22.9 16.8 18.8--- 6930.0wxwxwxwxwx2wx--21015.2 977.1 1.0---------
2019-06-21 07:00:00 22.1 18.0 19.2--- 7820.0wxwxwxwxwx1wx--11015.1 976.9 0.9---------
2019-06-21 06:00:00 20.0 17.3 18.1 21.3 16.5 16 8420.0wxwxwxwx1wx--11015.0 976.6 1.1 0.1 0.012----- 6.4
2019-06-21 05:00:00 19.2 16.7 17.4--- 8526.0wx-wx1wx--11014.6 976.1 0.8---------
2019-06-21 04:00:00 18.6 16.3 17.0--- 8725.0wx-wx1wx--11014.6 976.0 1.0---------
2019-06-21 03:00:00 17.4 16.2 16.5--- 9316.0wx-wx3wx--31014.2 975.5 0.9---------
2019-06-21 02:00:00 17.3 16.3 16.6--- 9413.0wx-wxwx2wx--21014.0 975.3 0.6---------
2019-06-21 01:00:00 17.5 16.1 16.5--- 9214.0wx-wxwx2wx--21013.7 975.0 0.3---------
2019-06-21 00:00:00 18.2 16.1 16.7--- 8818.0wx-wxwx2wx--21013.2 974.6 0.0- 0.06------
1.1 ms

 

Print Friendly, PDF & Email